Time;durP1;ratioP1;P1;durP2;ratioP2;P2;SDS_P1;SDS_P2;PMS_P1;PMS_P2;Temp;Humidity;BMP_temperature;BMP_pressure;BME280_temperature;BME280_humidity;BME280_pressure;Samples;Min_cycle;Max_cycle;Signal;HPM_P1;HPM_P2
2023/06/11 00:01:14;;;;;;;4.33;3.67;;;20.00;1.00;;;;;;6104110;23;20434;-87
2023/06/11 00:03:42;;;;;;;3.70;3.40;;;20.00;99.90;;;;;;6102699;23;20418;-88
2023/06/11 00:06:09;;;;;;;4.30;3.47;;;20.00;99.90;;;;;;6103247;23;20438;-87
2023/06/11 00:08:36;;;;;;;5.87;3.87;;;20.00;99.90;;;;;;6102962;23;20472;-89
2023/06/11 00:11:03;;;;;;;4.73;3.63;;;19.50;1.00;;;;;;6102509;23;20437;-87
2023/06/11 00:13:31;;;;;;;13.03;3.30;;;20.80;99.90;;;;;;6104116;23;20739;-87
2023/06/11 00:16:01;;;;;;;4.40;3.50;;;;;;;;;;6117320;23;20446;-87
2023/06/11 00:18:27;;;;;;;4.87;3.73;;;19.80;99.90;;;;;;6125227;23;20390;-87
2023/06/11 00:20:56;;;;;;;6.10;4.40;;;19.60;99.90;;;;;;6111159;23;21001;-88
2023/06/11 00:23:23;;;;;;;9.43;3.40;;;19.50;99.90;;;;;;6103130;23;20434;-88
2023/06/11 00:25:52;;;;;;;4.47;3.60;;;;;;;;;;6101855;23;20457;-87
2023/06/11 00:28:19;;;;;;;4.50;3.40;;;19.70;99.90;;;;;;6101832;23;20539;-87
2023/06/11 00:30:47;;;;;;;4.17;3.50;;;19.90;1.00;;;;;;6100552;23;20819;-87
2023/06/11 00:33:15;;;;;;;8.43;3.10;;;19.50;99.90;;;;;;6101630;23;20818;-88
2023/06/11 00:35:42;;;;;;;4.63;4.03;;;19.50;99.90;;;;;;6110728;23;20425;-87
2023/06/11 00:38:10;;;;;;;4.30;3.20;;;19.50;99.90;;;;;;6125411;23;20391;-88
2023/06/11 00:43:24;;;;;;;4.33;3.40;;;;;;;;;;6142979;23;20436;-91
2023/06/11 00:46:10;;;;;;;5.03;3.30;;;19.30;99.90;;;;;;6144672;23;20404;-91
2023/06/11 00:51:32;;;;;;;3.17;2.80;;;;;;;;;;6036958;23;20469;-89
2023/06/11 00:54:27;;;;;;;4.43;3.30;;;19.20;99.90;;;;;;6036791;23;20483;-91
2023/06/11 00:57:03;;;;;;;3.37;2.80;;;;;;;;;;6037150;23;20467;-91
2023/06/11 00:59:47;;;;;;;3.63;3.03;;;;;;;;;;6038224;23;20483;-91
2023/06/11 01:02:47;;;;;;;3.63;3.33;;;18.90;99.90;;;;;;6081218;23;20443;-91
2023/06/11 01:05:43;;;;;;;4.50;4.10;;;;;;;;;;6125039;23;20410;-92
2023/06/11 01:11:17;;;;;;;4.43;2.80;;;18.90;99.90;;;;;;6120730;23;20438;-91
2023/06/11 01:13:44;;;;;;;5.53;3.17;;;;;;;;;;6118750;23;20835;-85
2023/06/11 01:16:15;;;;;;;3.30;2.60;;;18.80;99.90;;;;;;6104775;23;20537;-85
2023/06/11 01:18:53;;;;;;;6.27;3.33;;;18.80;99.90;;;;;;6107548;23;20387;-85
2023/06/11 01:21:29;;;;;;;4.30;2.97;;;18.50;1.00;;;;;;6107569;23;20753;-85
2023/06/11 01:24:07;;;;;;;8.43;4.40;;;18.70;99.90;;;;;;6112223;23;20481;-85
2023/06/11 01:26:44;;;;;;;3.20;2.93;;;18.40;99.90;;;;;;6104734;23;20398;-85
2023/06/11 01:29:16;;;;;;;5.70;2.80;;;18.60;99.90;;;;;;6107498;23;20398;-85
2023/06/11 01:31:44;;;;;;;5.67;3.37;;;18.50;99.90;;;;;;6106156;23;20383;-85
2023/06/11 01:34:13;;;;;;;4.50;2.90;;;18.50;99.90;;;;;;6105179;23;20975;-85
2023/06/11 01:36:40;;;;;;;3.73;3.20;;;18.50;99.90;;;;;;6108082;23;20437;-85
2023/06/11 01:39:07;;;;;;;7.30;3.53;;;18.50;99.90;;;;;;6113540;23;20448;-85
2023/06/11 01:41:33;;;;;;;4.90;3.30;;;18.40;99.90;;;;;;6116952;23;20411;-85
2023/06/11 01:44:00;;;;;;;5.13;3.43;;;18.70;1.00;;;;;;6109441;23;20822;-85
2023/06/11 01:46:29;;;;;;;3.33;2.73;;;18.40;99.90;;;;;;6106117;23;20422;-85
2023/06/11 01:48:56;;;;;;;3.20;2.90;;;18.00;1.00;;;;;;6105580;23;20425;-85
2023/06/11 01:51:23;;;;;;;3.10;2.80;;;18.30;99.90;;;;;;6106603;23;20456;-84
2023/06/11 01:53:49;;;;;;;3.50;2.63;;;18.20;99.90;;;;;;6105472;23;20430;-85
2023/06/11 01:56:16;;;;;;;3.30;3.00;;;18.20;99.90;;;;;;6104758;23;20465;-85
2023/06/11 01:58:45;;;;;;;3.83;2.80;;;18.10;99.90;;;;;;6103935;23;20557;-85
2023/06/11 02:01:12;;;;;;;3.20;3.00;;;18.10;99.90;;;;;;6104744;23;20410;-85
2023/06/11 02:03:40;;;;;;;5.40;3.93;;;18.10;99.90;;;;;;6102472;23;20465;-85
2023/06/11 02:06:08;;;;;;;3.27;2.73;;;18.00;99.90;;;;;;6100876;23;20438;-86
2023/06/11 02:08:35;;;;;;;6.10;2.90;;;17.70;99.90;;;;;;6100409;23;20418;-85
2023/06/11 02:11:02;;;;;;;5.80;3.23;;;17.80;99.90;;;;;;6100461;23;20496;-85
2023/06/11 02:13:30;;;;;;;5.53;3.33;;;17.50;1.00;;;;;;6100734;23;20812;-85
2023/06/11 02:15:57;;;;;;;3.80;2.80;;;17.90;99.90;;;;;;6100744;23;20405;-84
2023/06/11 02:18:24;;;;;;;5.43;3.40;;;18.10;99.90;;;;;;6100964;23;20410;-84
2023/06/11 02:20:52;;;;;;;15.63;3.40;;;17.80;99.90;;;;;;6102030;23;20410;-84
2023/06/11 02:23:19;;;;;;;7.50;3.37;;;17.70;99.90;;;;;;6102160;23;20500;-84
2023/06/11 02:25:46;;;;;;;2.80;2.47;;;17.70;99.90;;;;;;6102970;23;20923;-84
2023/06/11 02:28:13;;;;;;;6.70;4.00;;;17.70;99.90;;;;;;6101079;23;20477;-84
2023/06/11 02:30:40;;;;;;;3.33;3.03;;;17.70;99.90;;;;;;6101970;23;20883;-84
2023/06/11 02:33:06;;;;;;;3.67;3.17;;;17.70;99.90;;;;;;6110050;23;20478;-84
2023/06/11 02:35:33;;;;;;;3.20;2.90;;;17.20;1.00;;;;;;6110796;23;20410;-84
2023/06/11 02:38:01;;;;;;;6.70;2.80;;;17.50;1.00;;;;;;6111987;23;20441;-83
2023/06/11 02:40:28;;;;;;;3.70;2.70;;;17.50;99.90;;;;;;6112349;23;20430;-84
2023/06/11 02:42:55;;;;;;;3.73;3.00;;;17.60;99.90;;;;;;6110875;23;20417;-83
2023/06/11 02:45:22;;;;;;;5.33;3.37;;;17.10;99.90;;;;;;6118921;23;20974;-83
2023/06/11 02:47:49;;;;;;;5.50;3.57;;;17.50;1.00;;;;;;6119096;23;20503;-86
2023/06/11 02:50:16;;;;;;;8.53;3.30;;;17.50;1.00;;;;;;6120981;23;20413;-83
2023/06/11 02:52:42;;;;;;;4.77;2.77;;;17.60;99.90;;;;;;6120454;23;20436;-84
2023/06/11 02:55:10;;;;;;;5.60;3.50;;;17.50;99.90;;;;;;6120404;23;20945;-83
2023/06/11 02:57:37;;;;;;;4.30;3.50;;;17.40;99.90;;;;;;6120122;23;20422;-83
2023/06/11 03:00:05;;;;;;;6.73;3.23;;;17.40;99.90;;;;;;6120078;23;20406;-84
2023/06/11 03:02:32;;;;;;;4.20;3.30;;;17.40;99.90;;;;;;6112910;23;20489;-84
2023/06/11 03:04:59;;;;;;;3.70;3.33;;;17.40;99.90;;;;;;6107282;23;20449;-85
2023/06/11 03:07:26;;;;;;;4.23;3.70;;;17.40;99.90;;;;;;6107383;23;20943;-84
2023/06/11 03:09:53;;;;;;;5.87;3.20;;;17.30;99.90;;;;;;6107812;23;20500;-84
2023/06/11 03:12:21;;;;;;;4.00;3.70;;;17.30;99.90;;;;;;6107081;23;20533;-84
2023/06/11 03:14:48;;;;;;;4.50;2.80;;;17.30;99.90;;;;;;6106048;23;20458;-87
2023/06/11 03:17:15;;;;;;;13.37;5.20;;;17.30;99.90;;;;;;6105385;23;20406;-84
2023/06/11 03:19:41;;;;;;;2.90;2.70;;;17.20;99.90;;;;;;6105648;23;20501;-84
2023/06/11 03:22:08;;;;;;;3.50;2.97;;;17.20;99.90;;;;;;6105768;23;20978;-85
2023/06/11 03:24:35;;;;;;;4.00;3.70;;;17.20;99.90;;;;;;6105401;23;20436;-84
2023/06/11 03:27:02;;;;;;;4.80;3.57;;;17.20;99.90;;;;;;6109038;23;20539;-84
2023/06/11 03:29:30;;;;;;;5.13;3.40;;;17.20;99.90;;;;;;6105244;23;20497;-84
2023/06/11 03:31:57;;;;;;;7.13;3.00;;;17.20;99.90;;;;;;6105812;23;20512;-85
2023/06/11 03:34:24;;;;;;;3.03;2.73;;;17.20;99.90;;;;;;6104873;23;20461;-85
2023/06/11 03:36:51;;;;;;;4.37;2.70;;;17.10;99.90;;;;;;6105866;23;20473;-84
2023/06/11 03:39:18;;;;;;;3.27;2.73;;;17.10;99.90;;;;;;6105657;23;20493;-84
2023/06/11 03:41:44;;;;;;;3.33;2.97;;;17.10;1.00;;;;;;6104576;23;20449;-85
2023/06/11 03:44:12;;;;;;;4.23;3.20;;;17.10;99.90;;;;;;6104792;23;20464;-85
2023/06/11 03:46:40;;;;;;;3.90;2.93;;;17.10;99.90;;;;;;6104617;23;20418;-85
2023/06/11 03:49:07;;;;;;;3.83;2.90;;;17.00;99.90;;;;;;6105508;23;20427;-85
2023/06/11 03:51:34;;;;;;;4.37;2.97;;;17.00;99.90;;;;;;6105199;23;20409;-85
2023/06/11 03:54:00;;;;;;;2.73;2.43;;;17.00;99.90;;;;;;6108541;23;20426;-85
2023/06/11 03:56:27;;;;;;;4.60;3.43;;;16.70;99.90;;;;;;6124417;23;20405;-85
2023/06/11 03:58:54;;;;;;;4.63;3.43;;;17.00;99.90;;;;;;6125738;23;20410;-86
2023/06/11 04:01:21;;;;;;;6.53;3.00;;;17.10;99.90;;;;;;6124494;23;20437;-84
2023/06/11 04:03:49;;;;;;;3.23;2.93;;;17.00;99.90;;;;;;6112427;23;20437;-84
2023/06/11 04:06:18;;;;;;;5.63;2.97;;;16.90;99.90;;;;;;6116171;23;20434;-85
2023/06/11 04:08:45;;;;;;;7.23;3.10;;;16.90;99.90;;;;;;6106102;23;20451;-85
2023/06/11 04:11:11;;;;;;;3.97;3.10;;;17.00;99.90;;;;;;6104630;23;20413;-84
2023/06/11 04:13:38;;;;;;;6.57;3.30;;;17.00;99.90;;;;;;6104512;23;20474;-83
2023/06/11 04:16:05;;;;;;;3.47;2.87;;;17.00;99.90;;;;;;6104473;23;20452;-84
2023/06/11 04:18:32;;;;;;;3.00;2.80;;;17.00;99.90;;;;;;6104878;23;20470;-84
2023/06/11 04:21:00;;;;;;;13.43;2.83;;;17.00;99.90;;;;;;6105180;23;20424;-84
2023/06/11 04:23:28;;;;;;;4.90;2.70;;;17.00;1.00;;;;;;6104600;23;20473;-85
2023/06/11 04:25:57;;;;;;;4.37;2.80;;;17.00;99.90;;;;;;6104192;23;20440;-85
2023/06/11 04:28:26;;;;;;;6.70;2.83;;;17.10;99.90;;;;;;6120523;23;20476;-85
2023/06/11 04:30:56;;;;;;;3.60;2.70;;;17.40;99.90;;;;;;6125857;23;20389;-86
2023/06/11 04:33:24;;;;;;;3.70;2.90;;;17.20;1.00;;;;;;6118101;23;20409;-85
2023/06/11 04:35:51;;;;;;;3.77;3.43;;;17.10;99.90;;;;;;6106512;23;20414;-85
2023/06/11 04:38:19;;;;;;;5.30;3.00;;;17.20;99.90;;;;;;6106615;23;20497;-85
2023/06/11 04:40:46;;;;;;;6.27;3.17;;;17.10;99.90;;;;;;6108405;23;20411;-85
2023/06/11 04:43:13;;;;;;;6.30;3.10;;;17.40;99.90;;;;;;6104470;23;20461;-85
2023/06/11 04:45:40;;;;;;;3.53;3.17;;;17.20;99.90;;;;;;6104353;23;20421;-85
2023/06/11 04:48:07;;;;;;;8.70;2.87;;;17.20;99.90;;;;;;6104435;23;20446;-85
2023/06/11 04:50:36;;;;;;;2.93;2.63;;;17.10;99.90;;;;;;6104250;23;20500;-85
2023/06/11 04:53:03;;;;;;;4.20;2.60;;;16.70;1.00;;;;;;6104579;23;20415;-85
2023/06/11 04:55:32;;;;;;;5.43;2.93;;;17.10;99.90;;;;;;6104257;23;20437;-85
2023/06/11 04:57:59;;;;;;;2.80;2.60;;;17.20;99.90;;;;;;6116320;23;20399;-85
2023/06/11 05:00:26;;;;;;;7.37;3.17;;;17.20;99.90;;;;;;6099411;23;20410;-84
2023/06/11 05:02:53;;;;;;;3.23;2.40;;;17.20;99.90;;;;;;6106213;23;20413;-85
2023/06/11 05:05:20;;;;;;;5.50;3.03;;;17.20;99.90;;;;;;6078780;23;20434;-85
2023/06/11 05:07:47;;;;;;;5.93;3.13;;;17.20;99.90;;;;;;6104038;23;21052;-85
2023/06/11 05:10:15;;;;;;;3.77;2.80;;;17.20;99.90;;;;;;6104462;23;20477;-85
2023/06/11 05:12:43;;;;;;;2.80;2.60;;;17.20;99.90;;;;;;6104191;23;20478;-84
2023/06/11 05:15:11;;;;;;;5.40;2.93;;;17.20;99.90;;;;;;6104055;23;20448;-84
2023/06/11 05:17:39;;;;;;;7.60;3.53;;;17.30;99.90;;;;;;6105120;23;20441;-85
2023/06/11 05:20:07;;;;;;;3.00;2.70;;;17.30;99.90;;;;;;6104854;23;20417;-84
2023/06/11 05:22:35;;;;;;;5.30;3.13;;;17.40;99.90;;;;;;6108835;23;20417;-84
2023/06/11 05:25:02;;;;;;;8.63;3.03;;;17.40;99.90;;;;;;6113869;23;20974;-84
2023/06/11 05:27:29;;;;;;;4.73;2.80;;;17.50;99.90;;;;;;6114898;23;20442;-83
2023/06/11 05:29:58;;;;;;;5.10;2.90;;;17.60;99.90;;;;;;6108009;23;20406;-84
2023/06/11 05:32:25;;;;;;;2.80;2.60;;;17.60;99.90;;;;;;6105722;23;20447;-86
2023/06/11 05:34:52;;;;;;;3.43;3.13;;;17.60;99.90;;;;;;6106022;23;20759;-85
2023/06/11 05:37:19;;;;;;;4.67;3.60;;;17.60;99.90;;;;;;6108608;23;20442;-85
2023/06/11 05:39:46;;;;;;;4.80;3.53;;;17.70;99.90;;;;;;6105999;23;20406;-84
2023/06/11 05:42:13;;;;;;;13.03;3.40;;;17.80;99.90;;;;;;6110669;23;20414;-84
2023/06/11 05:44:40;;;;;;;3.13;2.93;;;17.90;99.90;;;;;;6112391;23;20494;-84
2023/06/11 05:47:09;;;;;;;4.57;3.37;;;17.90;99.90;;;;;;6113975;23;20438;-85
2023/06/11 05:49:36;;;;;;;4.20;3.10;;;18.10;99.90;;;;;;6110268;23;20417;-84
2023/06/11 05:52:03;;;;;;;3.80;3.10;;;18.10;99.90;;;;;;6113027;23;20462;-84
2023/06/11 05:54:30;;;;;;;4.13;2.90;;;18.20;99.90;;;;;;6115775;23;20965;-84
2023/06/11 05:56:57;;;;;;;3.03;2.83;;;18.30;99.90;;;;;;6104559;23;20419;-84
2023/06/11 05:59:24;;;;;;;4.77;3.60;;;18.40;99.90;;;;;;6106226;23;20414;-84
2023/06/11 06:01:51;;;;;;;4.30;3.30;;;18.40;99.90;;;;;;6103745;23;20421;-84
2023/06/11 06:04:19;;;;;;;4.60;3.97;;;18.40;99.90;;;;;;6103618;23;20498;-84
2023/06/11 06:06:46;;;;;;;4.30;3.43;;;18.50;99.90;;;;;;6107049;23;20406;-83
2023/06/11 06:09:13;;;;;;;7.80;3.87;;;18.40;99.90;;;;;;6106123;23;20532;-85
2023/06/11 06:11:40;;;;;;;4.77;3.00;;;18.70;1.00;;;;;;6113434;23;20429;-85
2023/06/11 06:14:07;;;;;;;8.33;4.03;;;18.20;1.00;;;;;;6124992;23;20429;-84
2023/06/11 06:16:34;;;;;;;3.40;3.10;;;;;;;;;;6125090;23;20406;-85
2023/06/11 06:19:00;;;;;;;3.20;3.00;;;18.50;99.90;;;;;;6119299;23;20461;-84
2023/06/11 06:21:29;;;;;;;7.20;3.60;;;18.60;99.90;;;;;;6115725;23;20406;-85
2023/06/11 06:23:55;;;;;;;6.10;3.10;;;18.70;99.90;;;;;;6108847;23;20758;-85
2023/06/11 06:26:24;;;;;;;4.87;3.83;;;;;;;;;;6109420;23;20437;-84
2023/06/11 06:28:52;;;;;;;12.13;3.47;;;18.80;99.90;;;;;;6103101;23;20472;-84
2023/06/11 06:31:20;;;;;;;6.73;3.60;;;18.80;99.90;;;;;;6102743;23;20422;-84
2023/06/11 06:33:47;;;;;;;7.70;3.63;;;18.80;99.90;;;;;;6104638;23;20745;-84
2023/06/11 06:36:14;;;;;;;6.47;4.37;;;18.90;99.90;;;;;;6103190;23;20803;-84
2023/06/11 06:38:42;;;;;;;4.53;2.90;;;18.90;99.90;;;;;;6103229;23;20462;-84
2023/06/11 06:41:09;;;;;;;11.20;3.90;;;19.00;99.90;;;;;;6103628;23;20430;-85
2023/06/11 06:43:36;;;;;;;7.43;4.27;;;19.00;99.90;;;;;;6104053;23;20509;-85
2023/06/11 06:46:03;;;;;;;5.00;3.40;;;19.30;1.00;;;;;;6104116;23;20469;-85
2023/06/11 06:48:30;;;;;;;7.80;3.40;;;19.20;99.90;;;;;;6107195;23;20541;-84
2023/06/11 06:50:57;;;;;;;7.43;3.33;;;19.20;99.90;;;;;;6100965;23;20505;-85
2023/06/11 06:53:23;;;;;;;7.77;3.30;;;19.60;1.00;;;;;;6102251;23;20811;-84
2023/06/11 06:55:52;;;;;;;5.13;3.43;;;19.30;99.90;;;;;;6104070;23;20441;-85
2023/06/11 06:58:19;;;;;;;5.00;3.77;;;;;;;;;;6106500;23;20485;-85
2023/06/11 07:00:46;;;;;;;4.07;3.67;;;19.40;99.90;;;;;;6111526;23;20414;-85
2023/06/11 07:03:14;;;;;;;3.10;2.90;;;19.40;99.90;;;;;;6114042;23;20433;-85
2023/06/11 07:05:41;;;;;;;5.13;3.40;;;19.40;99.90;;;;;;6108489;23;20468;-85
2023/06/11 07:08:08;;;;;;;3.50;3.13;;;19.40;99.90;;;;;;6107462;23;21041;-85
2023/06/11 07:10:35;;;;;;;7.47;3.30;;;19.40;99.90;;;;;;6107722;23;20415;-85
2023/06/11 07:13:03;;;;;;;5.13;3.80;;;19.60;99.90;;;;;;6109259;23;20410;-84
2023/06/11 07:15:38;;;;;;;5.33;3.50;;;;;;;;;;6104014;23;20541;-89
2023/06/11 07:18:09;;;;;;;8.80;3.83;;;;;;;;;;6115793;23;20365;-89
2023/06/11 07:20:37;;;;;;;4.57;3.23;;;;;;;;;;6124786;23;20407;-90
2023/06/11 07:23:19;;;;;;;3.93;3.63;;;;;;;;;;6125899;23;20411;-91
2023/06/11 07:25:58;;;;;;;3.70;3.40;;;19.90;99.90;;;;;;6125756;23;20416;-90
2023/06/11 07:29:12;;;;;;;6.60;3.90;;;20.00;99.90;;;;;;6112829;23;20438;-89
2023/06/11 07:31:56;;;;;;;6.83;3.97;;;;;;;;;;6108814;23;20413;-89
2023/06/11 07:34:29;;;;;;;4.80;4.33;;;;;;;;;;6116155;23;20438;-89
2023/06/11 07:37:05;;;;;;;5.77;4.47;;;;;;;;;;6115825;23;20414;-89
2023/06/11 07:39:44;;;;;;;3.60;3.07;;;;;;;;;;6117982;23;20470;-89
2023/06/11 07:42:16;;;;;;;12.50;4.33;;;;;;;;;;6118982;23;20390;-88
2023/06/11 07:44:59;;;;;;;7.87;4.27;;;20.30;99.90;;;;;;6111927;23;20531;-89
2023/06/11 07:47:35;;;;;;;4.13;3.67;;;;;;;;;;6110236;23;20747;-89
2023/06/11 07:50:08;;;;;;;6.80;3.80;;;;;;;;;;6111141;23;20424;-89
2023/06/11 07:53:12;;;;;;;6.17;3.67;;;20.60;99.90;;;;;;6110071;23;20402;-89
2023/06/11 07:55:58;;;;;;;5.00;4.60;;;20.70;99.90;;;;;;6113671;23;20433;-89
2023/06/11 07:58:36;;;;;;;5.27;3.90;;;20.90;99.90;;;;;;6124127;23;20507;-89
2023/06/11 08:01:09;;;;;;;6.57;4.20;;;;;;;;;;6125880;23;20386;-92
2023/06/11 08:03:36;;;;;;;4.90;4.50;;;;;;;;;;6103677;23;20474;-91
2023/06/11 08:06:08;;;;;;;3.77;3.37;;;;;;;;;;6114997;23;20892;-89
2023/06/11 08:08:45;;;;;;;5.87;4.20;;;;;;;;;;6110663;23;20414;-89
2023/06/11 08:11:42;;;;;;;14.13;5.23;;;;;;;;;;6110281;23;20463;-89
2023/06/11 08:14:36;;;;;;;6.97;4.50;;;21.10;99.90;;;;;;6110132;23;20456;-89
2023/06/11 08:17:05;;;;;;;4.20;3.90;;;21.10;99.90;;;;;;6114693;23;20465;-85
2023/06/11 08:19:32;;;;;;;5.90;4.67;;;;;;;;;;6111494;23;20528;-85
2023/06/11 08:22:01;;;;;;;7.57;6.43;;;21.20;99.90;;;;;;6103810;23;20437;-85
2023/06/11 08:24:28;;;;;;;4.70;3.70;;;21.20;99.90;;;;;;6105369;23;20408;-84
2023/06/11 08:26:55;;;;;;;10.67;4.63;;;21.30;99.90;;;;;;6109808;23;20431;-84
2023/06/11 08:29:22;;;;;;;5.73;3.97;;;21.40;99.90;;;;;;6110096;23;20422;-84
2023/06/11 08:31:50;;;;;;;6.80;4.80;;;;;;;;;;6124444;23;20445;-84
2023/06/11 08:34:18;;;;;;;4.33;3.93;;;21.50;99.90;;;;;;6125909;23;20457;-85
2023/06/11 08:36:45;;;;;;;19.07;15.03;;;21.80;1.00;;;;;;6125773;23;20410;-84
2023/06/11 08:39:12;;;;;;;6.03;4.57;;;21.70;99.90;;;;;;6122706;23;20466;-83
2023/06/11 08:41:38;;;;;;;8.23;4.80;;;22.10;99.90;;;;;;6119338;23;20406;-84
2023/06/11 08:44:05;;;;;;;6.47;3.97;;;21.80;99.90;;;;;;6112448;23;20433;-84
2023/06/11 08:46:36;;;;;;;5.70;4.93;;;21.70;99.90;;;;;;6110996;23;20449;-86
2023/06/11 08:49:07;;;;;;;4.60;4.30;;;21.90;99.90;;;;;;6110674;23;20397;-84
2023/06/11 08:51:38;;;;;;;4.80;4.40;;;21.90;99.90;;;;;;6107119;23;20410;-85
2023/06/11 08:54:07;;;;;;;6.83;4.70;;;22.00;99.90;;;;;;6106839;23;20427;-85
2023/06/11 08:56:34;;;;;;;8.00;5.10;;;22.10;99.90;;;;;;6107721;23;20758;-85
2023/06/11 08:59:01;;;;;;;5.93;5.30;;;22.20;99.90;;;;;;6107696;23;20453;-85
2023/06/11 09:01:29;;;;;;;5.97;4.50;;;22.20;99.90;;;;;;6106113;23;20771;-84
2023/06/11 09:03:56;;;;;;;5.60;4.00;;;22.20;99.90;;;;;;6109154;23;20501;-84
2023/06/11 09:06:23;;;;;;;6.20;5.57;;;;;;;;;;6108777;23;20457;-84
2023/06/11 09:08:59;;;;;;;6.03;5.17;;;22.40;99.90;;;;;;6107311;23;20410;-85
2023/06/11 09:11:32;;;;;;;4.50;4.10;;;22.40;99.90;;;;;;6108280;23;20453;-84
2023/06/11 09:13:58;;;;;;;10.03;5.83;;;22.40;99.90;;;;;;6108095;23;20481;-85
2023/06/11 09:16:26;;;;;;;7.87;6.10;;;;;;;;;;6107823;23;20441;-86
2023/06/11 09:18:54;;;;;;;5.70;4.53;;;22.40;99.90;;;;;;6108538;23;20500;-86
2023/06/11 09:21:23;;;;;;;10.40;6.53;;;22.50;99.90;;;;;;6110234;23;20477;-83
2023/06/11 09:23:51;;;;;;;6.70;4.43;;;22.50;99.90;;;;;;6107118;23;20838;-84
2023/06/11 09:26:19;;;;;;;11.93;5.50;;;22.70;99.90;;;;;;6105994;23;20434;-84
2023/06/11 09:28:47;;;;;;;7.10;5.87;;;22.80;99.90;;;;;;6104600;23;20426;-84
2023/06/11 09:31:14;;;;;;;4.83;4.37;;;;;;;;;;6107505;23;20410;-84
2023/06/11 09:33:41;;;;;;;6.73;5.93;;;;;;;;;;6108779;23;20410;-85
2023/06/11 09:36:10;;;;;;;6.60;5.80;;;23.00;1.00;;;;;;6108966;23;20430;-85
2023/06/11 09:38:37;;;;;;;6.23;5.67;;;23.10;99.90;;;;;;6110958;23;20416;-85
2023/06/11 09:41:06;;;;;;;5.70;5.20;;;23.20;99.90;;;;;;6110248;23;20418;-85
2023/06/11 09:43:35;;;;;;;11.07;5.67;;;23.20;99.90;;;;;;6114080;23;20494;-85
2023/06/11 09:46:02;;;;;;;9.63;6.10;;;;;;;;;;6113058;23;20430;-85
2023/06/11 09:48:30;;;;;;;8.33;5.77;;;23.30;99.90;;;;;;6108922;23;20414;-85
2023/06/11 09:50:57;;;;;;;7.37;5.53;;;;;;;;;;6108827;23;20796;-85
2023/06/11 09:53:24;;;;;;;9.70;7.83;;;23.40;99.90;;;;;;6110230;23;20438;-85
2023/06/11 09:55:52;;;;;;;6.13;5.53;;;23.80;1.00;;;;;;6117518;23;20521;-85
2023/06/11 09:58:22;;;;;;;7.50;5.60;;;23.50;99.90;;;;;;6113897;23;20408;-85
2023/06/11 10:00:52;;;;;;;6.07;5.53;;;23.60;99.90;;;;;;6113837;23;20459;-85
2023/06/11 10:03:19;;;;;;;14.23;11.03;;;23.60;99.90;;;;;;6111126;23;20409;-85
2023/06/11 10:05:46;;;;;;;7.33;6.07;;;23.70;99.90;;;;;;6113144;23;20422;-85
2023/06/11 10:08:17;;;;;;;6.90;6.30;;;24.00;1.00;;;;;;6109840;23;20410;-85
2023/06/11 10:10:46;;;;;;;7.30;6.60;;;23.70;99.90;;;;;;6107080;23;20490;-85
2023/06/11 10:13:28;;;;;;;6.87;6.27;;;23.80;99.90;;;;;;6108198;23;20963;-86
2023/06/11 10:15:57;;;;;;;8.50;7.20;;;23.90;99.90;;;;;;6107472;23;20493;-85
2023/06/11 10:18:25;;;;;;;7.57;5.93;;;24.00;99.90;;;;;;6107746;23;20501;-85
2023/06/11 10:20:53;;;;;;;8.97;6.90;;;24.10;99.90;;;;;;6110842;23;20453;-85
2023/06/11 10:23:20;;;;;;;10.77;5.60;;;24.00;99.90;;;;;;6105461;23;20439;-84
2023/06/11 10:25:54;;;;;;;8.43;5.80;;;24.10;99.90;;;;;;6116262;23;20468;-85
2023/06/11 10:28:23;;;;;;;20.57;14.70;;;24.30;1.00;;;;;;6105342;23;20501;-85
2023/06/11 10:30:53;;;;;;;7.30;6.70;;;24.30;99.90;;;;;;6104567;23;20441;-88
2023/06/11 10:33:22;;;;;;;10.10;6.80;;;24.40;99.90;;;;;;6103726;23;20469;-86
2023/06/11 10:35:50;;;;;;;9.10;8.20;;;;;;;;;;6107122;23;20444;-85
2023/06/11 10:38:17;;;;;;;6.63;6.03;;;;;;;;;;6105718;23;20420;-84
2023/06/11 10:40:48;;;;;;;8.07;6.63;;;24.60;1.00;;;;;;6107666;23;20759;-85
2023/06/11 10:43:17;;;;;;;6.73;5.87;;;24.60;99.90;;;;;;6107886;23;20412;-85
2023/06/11 10:45:44;;;;;;;7.37;5.40;;;;;;;;;;6111240;23;20501;-85
2023/06/11 10:48:12;;;;;;;9.80;8.80;;;24.60;99.90;;;;;;6108385;23;20498;-85
2023/06/11 10:50:40;;;;;;;13.33;10.77;;;24.70;99.90;;;;;;6111178;23;20492;-85
2023/06/11 10:53:13;;;;;;;38.60;30.00;;;24.70;99.90;;;;;;6124293;23;20406;-85
2023/06/11 10:55:44;;;;;;;9.20;8.03;;;24.80;99.90;;;;;;6124576;23;20443;-84
2023/06/11 10:58:19;;;;;;;8.83;7.93;;;24.80;1.00;;;;;;6125464;23;20382;-85
2023/06/11 11:00:47;;;;;;;8.17;6.60;;;;;;;;;;6106569;23;20437;-85
2023/06/11 11:03:13;;;;;;;7.73;6.20;;;24.70;99.90;;;;;;6115005;23;20437;-85
2023/06/11 11:05:43;;;;;;;10.67;5.90;;;24.80;99.90;;;;;;6123766;23;20413;-85
2023/06/11 11:08:11;;;;;;;7.60;6.90;;;;;;;;;;6117509;23;20410;-85
2023/06/11 11:10:38;;;;;;;7.20;6.53;;;25.30;1.00;;;;;;6109462;23;20409;-85
2023/06/11 11:13:05;;;;;;;10.00;6.27;;;;;;;;;;6110805;23;20489;-85
2023/06/11 11:15:32;;;;;;;6.80;6.20;;;25.30;99.90;;;;;;6109839;23;20444;-85
2023/06/11 11:17:59;;;;;;;10.63;9.00;;;25.40;99.90;;;;;;6110138;23;20436;-84
2023/06/11 11:20:26;;;;;;;7.60;6.87;;;25.50;99.90;;;;;;6109729;23;20834;-85
2023/06/11 11:22:56;;;;;;;10.83;7.60;;;24.90;1.00;;;;;;6109832;23;20406;-85
2023/06/11 11:25:27;;;;;;;11.27;7.80;;;25.80;1.00;;;;;;6109408;23;20461;-85
2023/06/11 11:27:55;;;;;;;11.40;8.60;;;25.90;1.00;;;;;;6111237;23;20401;-85
2023/06/11 11:30:22;;;;;;;8.30;7.40;;;25.60;99.90;;;;;;6120235;23;20470;-85
2023/06/11 11:32:50;;;;;;;8.30;7.20;;;25.60;99.90;;;;;;6125176;23;20397;-85
2023/06/11 11:35:17;;;;;;;13.43;10.10;;;25.20;1.00;;;;;;6125651;23;20422;-85
2023/06/11 11:37:47;;;;;;;9.37;7.93;;;25.60;99.90;;;;;;6110657;23;20925;-85
2023/06/11 11:40:19;;;;;;;8.90;8.00;;;25.60;99.90;;;;;;6111102;23;20839;-85
2023/06/11 11:42:49;;;;;;;7.57;6.80;;;25.70;99.90;;;;;;6110166;23;20378;-85
2023/06/11 11:45:16;;;;;;;9.30;8.30;;;25.50;1.00;;;;;;6106634;23;20887;-85
2023/06/11 11:47:46;;;;;;;7.97;7.40;;;25.90;99.90;;;;;;6105649;23;20489;-85
2023/06/11 11:50:21;;;;;;;8.47;7.70;;;26.00;99.90;;;;;;6105363;23;20497;-85
2023/06/11 11:53:02;;;;;;;8.43;7.73;;;26.20;99.90;;;;;;6106676;23;20400;-85
2023/06/11 11:55:32;;;;;;;7.80;7.10;;;26.30;99.90;;;;;;6106624;23;20433;-85
2023/06/11 11:58:06;;;;;;;9.70;8.13;;;26.10;99.90;;;;;;6106446;23;20394;-85
2023/06/11 12:00:34;;;;;;;7.83;7.00;;;26.30;99.90;;;;;;6106740;23;20513;-85
2023/06/11 12:03:08;;;;;;;8.13;7.33;;;25.80;1.00;;;;;;6108773;23;20414;-85
2023/06/11 12:05:37;;;;;;;13.80;10.60;;;25.70;1.00;;;;;;6107538;23;20803;-85
2023/06/11 12:08:04;;;;;;;9.73;8.87;;;25.90;99.90;;;;;;6107022;23;20744;-85
2023/06/11 12:10:43;;;;;;;8.37;7.77;;;25.30;99.90;;;;;;6107695;23;20915;-85
2023/06/11 12:13:10;;;;;;;16.40;7.57;;;;;;;;;;6107699;23;20405;-85
2023/06/11 12:15:36;;;;;;;10.83;9.73;;;25.10;99.90;;;;;;6106927;23;20830;-85
2023/06/11 12:18:03;;;;;;;16.57;8.80;;;25.20;99.90;;;;;;6108065;23;20397;-85
2023/06/11 12:20:30;;;;;;;8.50;7.70;;;25.20;99.90;;;;;;6110345;23;20473;-86
2023/06/11 12:22:57;;;;;;;9.67;8.27;;;25.30;99.90;;;;;;6109006;23;20470;-85
2023/06/11 12:25:25;;;;;;;9.20;7.27;;;25.60;99.90;;;;;;6113189;23;20418;-85
2023/06/11 12:27:54;;;;;;;11.73;8.63;;;25.80;99.90;;;;;;6111510;23;20481;-86
2023/06/11 12:30:23;;;;;;;7.90;7.30;;;26.00;99.90;;;;;;6113021;23;20421;-85
2023/06/11 12:32:51;;;;;;;8.30;7.50;;;26.20;99.90;;;;;;6113055;23;20430;-85
2023/06/11 12:35:18;;;;;;;10.87;8.00;;;27.00;1.00;;;;;;6111381;23;20414;-85
2023/06/11 12:37:46;;;;;;;13.10;11.77;;;26.50;99.90;;;;;;6111353;23;20425;-86
2023/06/11 12:40:13;;;;;;;8.43;7.73;;;26.50;99.90;;;;;;6111842;23;20441;-86
2023/06/11 12:42:40;;;;;;;10.70;9.63;;;26.50;99.90;;;;;;6112217;23;20414;-85
2023/06/11 12:45:10;;;;;;;8.03;7.40;;;26.60;1.00;;;;;;6109905;23;20414;-85
2023/06/11 12:47:37;;;;;;;9.60;8.90;;;26.50;1.00;;;;;;6108800;23;20746;-85
2023/06/11 12:50:05;;;;;;;10.60;9.60;;;26.70;99.90;;;;;;6108658;23;20412;-86
2023/06/11 12:52:32;;;;;;;9.60;8.80;;;26.50;99.90;;;;;;6108132;23;20469;-86
2023/06/11 12:54:58;;;;;;;10.50;9.47;;;26.20;99.90;;;;;;6108695;23;20414;-85
2023/06/11 12:57:25;;;;;;;10.33;9.33;;;26.40;1.00;;;;;;6108825;23;20450;-85
2023/06/11 12:59:52;;;;;;;9.47;8.50;;;26.10;99.90;;;;;;6107896;23;20449;-85
2023/06/11 13:02:20;;;;;;;9.33;8.20;;;26.20;99.90;;;;;;6107188;23;20406;-85
2023/06/11 13:04:47;;;;;;;11.60;8.90;;;26.20;99.90;;;;;;6106782;23;20434;-84
2023/06/11 13:07:14;;;;;;;10.37;9.37;;;26.20;99.90;;;;;;6107053;23;20517;-85
2023/06/11 13:09:43;;;;;;;13.43;8.93;;;26.10;99.90;;;;;;6083170;23;20442;-85
2023/06/11 13:12:11;;;;;;;9.90;8.90;;;25.20;1.00;;;;;;6107061;23;20445;-86
2023/06/11 13:14:38;;;;;;;9.90;9.00;;;25.60;99.90;;;;;;6113314;23;20434;-85
2023/06/11 13:17:05;;;;;;;10.30;9.40;;;25.60;99.90;;;;;;6118655;23;20445;-84
2023/06/11 13:19:33;;;;;;;10.67;9.63;;;25.20;1.00;;;;;;6118336;23;20425;-85